Forside
METAR-TAF:

METAR-TAF

Lufthavne :

South Bend Regional Airport

South Bend, Indiana, USA

Breddekreds: 41-42-32N, længdekreds: 086-19-07W, højde: 244 m

Aktuelle vejr

Denne rapport blev lavet for 47 minutter siden, kl. 02:54 UTC
Vind 9 kt fra vestnordvest
Temperatur -3°C
Fugtighed 58%
Tryk 1017 hPa
Sigt: 16.1 km
Overskyet i en højde af 4700 ft

METAR: KSBN 280254Z 29009KT 10SM OVC047 M03/M10 A3002 RMK AO2 UPB42E50SNB40E42 SLP175 P0000 60000 T10331100 51002

Tid: 22:41 (03:41 UTC)

Vejrudsigter

Denne rapport blev lavet for 4 timer og 21 minutter siden, kl. 23:20 UTC
Foreløbig gælder fra 28 på 00 UTC til 28 på 24 UTC
Vind 10 kt fra vestnordvest
Sigt: 10 km
Overskyet i en højde af 5000 ft
Fra 28 på 1400 UTC
Vind 12 kt fra vestnordvest med vindstød på up til 17 kt
Sigt: 10 km
Brudte skyer i en højde af 4000 ft

TAF: KSBN 272320Z 2800/2824 30010KT P6SM OVC050 FM281400 29012G17KT P6SM BKN040

Vejrobservationer og prognoser fra mere end 4000 lufthavne (METAR og TAF).

De gule og røde prikker repræsenterer de meteorologiske stationer.

Flyt musen over at se navnet på stationen.

Så klik over at se vejr observationer og prognoser.

At skifte det kort: Klik på de grønne knapper med et sort kors for at zoome ind; på den grønne knap med en bindestreg for at zoome ud; eller på de grønne pile for tilstødende kort.


METAR-TAF: